sensor_id;sensor_type;location;lat;lon;timestamp;P1;durP1;ratioP1;P2;durP2;ratioP2
53299;SDS011;39187;48.476;8.310;2024-03-23T00:52:40;2.13;;;1.93;;
53299;SDS011;39187;48.476;8.310;2024-03-23T00:55:05;2.70;;;2.50;;
53299;SDS011;39187;48.476;8.310;2024-03-23T00:57:31;3.00;;;2.80;;
53299;SDS011;39187;48.476;8.310;2024-03-23T00:59:57;3.53;;;2.73;;
53299;SDS011;39187;48.476;8.310;2024-03-23T01:02:22;2.60;;;2.40;;
53299;SDS011;39187;48.476;8.310;2024-03-23T01:04:48;2.30;;;2.20;;
53299;SDS011;39187;48.476;8.310;2024-03-23T01:07:13;2.63;;;2.50;;
53299;SDS011;39187;48.476;8.310;2024-03-23T01:09:39;4.03;;;2.20;;
53299;SDS011;39187;48.476;8.310;2024-03-23T01:12:05;3.80;;;2.70;;
53299;SDS011;39187;48.476;8.310;2024-03-23T01:14:30;11.60;;;3.00;;
53299;SDS011;39187;48.476;8.310;2024-03-23T01:16:56;2.63;;;2.50;;
53299;SDS011;39187;48.476;8.310;2024-03-23T01:19:21;3.67;;;2.47;;
53299;SDS011;39187;48.476;8.310;2024-03-23T01:21:47;2.67;;;2.47;;
53299;SDS011;39187;48.476;8.310;2024-03-23T01:24:13;4.33;;;2.83;;
53299;SDS011;39187;48.476;8.310;2024-03-23T01:26:39;7.43;;;2.60;;
53299;SDS011;39187;48.476;8.310;2024-03-23T01:29:05;2.97;;;2.77;;
53299;SDS011;39187;48.476;8.310;2024-03-23T01:31:30;7.17;;;3.10;;
53299;SDS011;39187;48.476;8.310;2024-03-23T01:33:57;3.40;;;2.50;;
53299;SDS011;39187;48.476;8.310;2024-03-23T01:36:23;2.70;;;2.50;;
53299;SDS011;39187;48.476;8.310;2024-03-23T01:38:49;3.50;;;3.20;;
53299;SDS011;39187;48.476;8.310;2024-03-23T01:41:14;5.53;;;2.33;;
53299;SDS011;39187;48.476;8.310;2024-03-23T01:43:40;2.90;;;2.80;;
53299;SDS011;39187;48.476;8.310;2024-03-23T01:46:06;2.50;;;2.27;;
53299;SDS011;39187;48.476;8.310;2024-03-23T01:48:32;3.17;;;2.17;;
53299;SDS011;39187;48.476;8.310;2024-03-23T01:50:57;6.00;;;2.90;;
53299;SDS011;39187;48.476;8.310;2024-03-23T01:53:23;2.60;;;2.40;;
53299;SDS011;39187;48.476;8.310;2024-03-23T01:55:50;3.63;;;3.33;;
53299;SDS011;39187;48.476;8.310;2024-03-23T01:58:16;2.80;;;2.70;;
53299;SDS011;39187;48.476;8.310;2024-03-23T02:00:42;2.90;;;2.70;;
53299;SDS011;39187;48.476;8.310;2024-03-23T02:03:23;3.00;;;2.70;;
53299;SDS011;39187;48.476;8.310;2024-03-23T02:05:53;3.00;;;2.83;;
53299;SDS011;39187;48.476;8.310;2024-03-23T02:08:22;3.10;;;2.80;;
53299;SDS011;39187;48.476;8.310;2024-03-23T02:10:51;3.10;;;2.87;;
53299;SDS011;39187;48.476;8.310;2024-03-23T02:13:17;2.90;;;2.70;;
53299;SDS011;39187;48.476;8.310;2024-03-23T02:15:44;3.00;;;2.80;;
53299;SDS011;39187;48.476;8.310;2024-03-23T02:18:09;3.10;;;2.80;;
53299;SDS011;39187;48.476;8.310;2024-03-23T02:20:36;3.00;;;2.83;;
53299;SDS011;39187;48.476;8.310;2024-03-23T02:23:02;2.97;;;2.77;;
53299;SDS011;39187;48.476;8.310;2024-03-23T02:25:28;3.13;;;2.83;;
53299;SDS011;39187;48.476;8.310;2024-03-23T02:27:54;3.83;;;3.53;;
53299;SDS011;39187;48.476;8.310;2024-03-23T02:30:20;2.87;;;2.67;;
53299;SDS011;39187;48.476;8.310;2024-03-23T02:32:46;3.40;;;3.10;;
53299;SDS011;39187;48.476;8.310;2024-03-23T02:35:11;3.23;;;2.93;;
53299;SDS011;39187;48.476;8.310;2024-03-23T02:37:37;3.40;;;3.20;;
53299;SDS011;39187;48.476;8.310;2024-03-23T02:40:02;3.20;;;3.00;;
53299;SDS011;39187;48.476;8.310;2024-03-23T02:42:28;3.30;;;3.10;;
53299;SDS011;39187;48.476;8.310;2024-03-23T02:44:54;5.57;;;3.23;;
53299;SDS011;39187;48.476;8.310;2024-03-23T02:47:19;4.43;;;3.30;;
53299;SDS011;39187;48.476;8.310;2024-03-23T02:49:45;3.20;;;3.00;;
53299;SDS011;39187;48.476;8.310;2024-03-23T02:52:10;3.67;;;3.47;;
53299;SDS011;39187;48.476;8.310;2024-03-23T02:54:36;5.97;;;3.70;;
53299;SDS011;39187;48.476;8.310;2024-03-23T02:57:02;3.10;;;3.00;;
53299;SDS011;39187;48.476;8.310;2024-03-23T02:59:27;2.80;;;2.70;;
53299;SDS011;39187;48.476;8.310;2024-03-23T03:01:53;3.13;;;2.93;;
53299;SDS011;39187;48.476;8.310;2024-03-23T03:04:18;3.90;;;3.70;;
53299;SDS011;39187;48.476;8.310;2024-03-23T03:06:47;3.40;;;3.20;;
53299;SDS011;39187;48.476;8.310;2024-03-23T03:09:13;3.80;;;3.60;;
53299;SDS011;39187;48.476;8.310;2024-03-23T03:11:38;4.03;;;3.70;;
53299;SDS011;39187;48.476;8.310;2024-03-23T03:14:04;3.03;;;2.50;;
53299;SDS011;39187;48.476;8.310;2024-03-23T03:16:32;3.70;;;3.33;;
53299;SDS011;39187;48.476;8.310;2024-03-23T03:18:57;3.60;;;3.40;;
53299;SDS011;39187;48.476;8.310;2024-03-23T03:21:23;3.57;;;3.37;;
53299;SDS011;39187;48.476;8.310;2024-03-23T03:23:48;3.60;;;3.00;;
53299;SDS011;39187;48.476;8.310;2024-03-23T03:26:15;3.70;;;3.40;;
53299;SDS011;39187;48.476;8.310;2024-03-23T03:28:42;4.17;;;3.87;;
53299;SDS011;39187;48.476;8.310;2024-03-23T03:31:09;3.27;;;3.17;;
53299;SDS011;39187;48.476;8.310;2024-03-23T03:33:34;7.97;;;3.80;;
53299;SDS011;39187;48.476;8.310;2024-03-23T03:36:00;4.13;;;3.73;;
53299;SDS011;39187;48.476;8.310;2024-03-23T03:38:25;4.60;;;2.90;;
53299;SDS011;39187;48.476;8.310;2024-03-23T03:40:51;3.50;;;3.27;;
53299;SDS011;39187;48.476;8.310;2024-03-23T03:43:17;5.13;;;3.53;;
53299;SDS011;39187;48.476;8.310;2024-03-23T03:45:50;4.60;;;3.87;;
53299;SDS011;39187;48.476;8.310;2024-03-23T03:48:16;4.07;;;3.87;;
53299;SDS011;39187;48.476;8.310;2024-03-23T03:50:42;3.70;;;3.60;;
53299;SDS011;39187;48.476;8.310;2024-03-23T03:53:07;4.10;;;3.90;;
53299;SDS011;39187;48.476;8.310;2024-03-23T03:55:33;5.17;;;3.63;;
53299;SDS011;39187;48.476;8.310;2024-03-23T03:57:58;3.07;;;2.87;;
53299;SDS011;39187;48.476;8.310;2024-03-23T04:00:24;3.97;;;3.60;;
53299;SDS011;39187;48.476;8.310;2024-03-23T04:02:50;3.50;;;3.00;;
53299;SDS011;39187;48.476;8.310;2024-03-23T04:05:16;4.30;;;3.13;;
53299;SDS011;39187;48.476;8.310;2024-03-23T04:07:41;3.20;;;3.00;;
53299;SDS011;39187;48.476;8.310;2024-03-23T04:10:07;4.10;;;3.90;;
53299;SDS011;39187;48.476;8.310;2024-03-23T04:12:33;3.97;;;3.67;;
53299;SDS011;39187;48.476;8.310;2024-03-23T04:14:59;8.73;;;4.50;;
53299;SDS011;39187;48.476;8.310;2024-03-23T04:17:25;7.17;;;3.90;;
53299;SDS011;39187;48.476;8.310;2024-03-23T04:19:52;3.83;;;3.63;;
53299;SDS011;39187;48.476;8.310;2024-03-23T04:22:19;3.43;;;3.23;;
53299;SDS011;39187;48.476;8.310;2024-03-23T04:24:44;4.77;;;3.93;;
53299;SDS011;39187;48.476;8.310;2024-03-23T04:27:10;5.93;;;5.33;;
53299;SDS011;39187;48.476;8.310;2024-03-23T04:29:35;5.90;;;5.60;;
53299;SDS011;39187;48.476;8.310;2024-03-23T04:32:01;6.03;;;5.73;;
53299;SDS011;39187;48.476;8.310;2024-03-23T04:34:27;5.93;;;5.43;;
53299;SDS011;39187;48.476;8.310;2024-03-23T04:36:52;4.63;;;4.43;;
53299;SDS011;39187;48.476;8.310;2024-03-23T04:39:18;3.37;;;3.27;;
53299;SDS011;39187;48.476;8.310;2024-03-23T04:41:44;3.07;;;2.87;;
53299;SDS011;39187;48.476;8.310;2024-03-23T04:44:10;6.10;;;5.80;;
53299;SDS011;39187;48.476;8.310;2024-03-23T04:46:35;8.80;;;8.20;;
53299;SDS011;39187;48.476;8.310;2024-03-23T04:49:01;9.13;;;8.53;;
53299;SDS011;39187;48.476;8.310;2024-03-23T04:51:34;11.37;;;10.57;;
53299;SDS011;39187;48.476;8.310;2024-03-23T04:54:01;10.70;;;9.50;;
53299;SDS011;39187;48.476;8.310;2024-03-23T04:56:27;7.77;;;7.40;;
53299;SDS011;39187;48.476;8.310;2024-03-23T04:58:52;8.43;;;7.93;;
53299;SDS011;39187;48.476;8.310;2024-03-23T05:01:18;8.50;;;7.67;;
53299;SDS011;39187;48.476;8.310;2024-03-23T05:03:43;9.60;;;8.70;;
53299;SDS011;39187;48.476;8.310;2024-03-23T05:06:09;9.00;;;8.33;;
53299;SDS011;39187;48.476;8.310;2024-03-23T05:08:34;9.13;;;8.43;;
53299;SDS011;39187;48.476;8.310;2024-03-23T05:11:00;7.70;;;7.30;;
53299;SDS011;39187;48.476;8.310;2024-03-23T05:13:25;6.57;;;6.13;;
53299;SDS011;39187;48.476;8.310;2024-03-23T05:15:52;7.07;;;6.67;;
53299;SDS011;39187;48.476;8.310;2024-03-23T05:18:18;8.03;;;7.53;;
53299;SDS011;39187;48.476;8.310;2024-03-23T05:20:44;8.53;;;7.90;;
53299;SDS011;39187;48.476;8.310;2024-03-23T05:23:09;7.80;;;7.10;;
53299;SDS011;39187;48.476;8.310;2024-03-23T05:25:35;7.30;;;6.80;;
53299;SDS011;39187;48.476;8.310;2024-03-23T05:28:00;6.93;;;6.33;;
53299;SDS011;39187;48.476;8.310;2024-03-23T05:30:26;17.77;;;5.70;;
53299;SDS011;39187;48.476;8.310;2024-03-23T05:32:51;5.50;;;5.20;;
53299;SDS011;39187;48.476;8.310;2024-03-23T05:35:16;6.20;;;5.80;;
53299;SDS011;39187;48.476;8.310;2024-03-23T05:37:42;7.10;;;6.50;;
53299;SDS011;39187;48.476;8.310;2024-03-23T05:40:08;8.80;;;8.00;;
53299;SDS011;39187;48.476;8.310;2024-03-23T05:42:34;7.30;;;6.80;;
53299;SDS011;39187;48.476;8.310;2024-03-23T05:45:00;7.40;;;6.80;;
53299;SDS011;39187;48.476;8.310;2024-03-23T05:47:25;6.20;;;5.70;;
53299;SDS011;39187;48.476;8.310;2024-03-23T05:49:51;4.40;;;4.00;;
53299;SDS011;39187;48.476;8.310;2024-03-23T05:52:17;3.70;;;3.50;;
53299;SDS011;39187;48.476;8.310;2024-03-23T05:54:42;2.80;;;2.60;;
53299;SDS011;39187;48.476;8.310;2024-03-23T05:57:09;3.77;;;3.57;;
53299;SDS011;39187;48.476;8.310;2024-03-23T05:59:34;3.87;;;3.67;;
53299;SDS011;39187;48.476;8.310;2024-03-23T06:02:00;3.20;;;3.10;;
53299;SDS011;39187;48.476;8.310;2024-03-23T06:04:25;3.70;;;3.40;;
53299;SDS011;39187;48.476;8.310;2024-03-23T06:06:51;2.63;;;2.53;;
53299;SDS011;39187;48.476;8.310;2024-03-23T06:09:20;2.10;;;2.00;;
53299;SDS011;39187;48.476;8.310;2024-03-23T06:11:45;2.37;;;2.27;;
53299;SDS011;39187;48.476;8.310;2024-03-23T06:14:11;1.90;;;1.80;;
53299;SDS011;39187;48.476;8.310;2024-03-23T06:16:36;2.23;;;2.13;;
53299;SDS011;39187;48.476;8.310;2024-03-23T06:19:02;1.87;;;1.77;;
53299;SDS011;39187;48.476;8.310;2024-03-23T06:21:29;1.67;;;1.57;;
53299;SDS011;39187;48.476;8.310;2024-03-23T06:23:55;1.70;;;1.60;;
53299;SDS011;39187;48.476;8.310;2024-03-23T06:26:20;1.70;;;1.60;;
53299;SDS011;39187;48.476;8.310;2024-03-23T06:28:46;1.80;;;1.00;;
53299;SDS011;39187;48.476;8.310;2024-03-23T06:31:12;1.70;;;1.60;;
53299;SDS011;39187;48.476;8.310;2024-03-23T06:33:38;0.90;;;0.90;;
53299;SDS011;39187;48.476;8.310;2024-03-23T06:36:05;1.00;;;0.90;;
53299;SDS011;39187;48.476;8.310;2024-03-23T06:38:31;1.03;;;1.03;;
53299;SDS011;39187;48.476;8.310;2024-03-23T06:40:57;0.80;;;0.80;;
53299;SDS011;39187;48.476;8.310;2024-03-23T06:43:23;0.70;;;0.70;;
53299;SDS011;39187;48.476;8.310;2024-03-23T06:45:52;0.63;;;0.63;;
53299;SDS011;39187;48.476;8.310;2024-03-23T06:48:18;0.60;;;0.60;;
53299;SDS011;39187;48.476;8.310;2024-03-23T06:50:44;0.90;;;0.90;;
53299;SDS011;39187;48.476;8.310;2024-03-23T06:53:11;2.20;;;0.83;;
53299;SDS011;39187;48.476;8.310;2024-03-23T06:55:37;0.90;;;0.90;;
53299;SDS011;39187;48.476;8.310;2024-03-23T06:58:02;0.70;;;0.70;;
53299;SDS011;39187;48.476;8.310;2024-03-23T07:00:29;0.60;;;0.60;;
53299;SDS011;39187;48.476;8.310;2024-03-23T07:02:55;0.50;;;0.50;;
53299;SDS011;39187;48.476;8.310;2024-03-23T07:05:20;0.70;;;0.70;;
53299;SDS011;39187;48.476;8.310;2024-03-23T07:07:46;0.60;;;0.60;;
53299;SDS011;39187;48.476;8.310;2024-03-23T07:10:11;0.60;;;0.60;;
53299;SDS011;39187;48.476;8.310;2024-03-23T07:12:37;0.60;;;0.60;;
53299;SDS011;39187;48.476;8.310;2024-03-23T07:15:02;1.80;;;0.80;;
53299;SDS011;39187;48.476;8.310;2024-03-23T07:17:28;0.93;;;0.80;;
53299;SDS011;39187;48.476;8.310;2024-03-23T07:19:54;0.80;;;0.80;;
53299;SDS011;39187;48.476;8.310;2024-03-23T07:22:19;1.37;;;1.27;;
53299;SDS011;39187;48.476;8.310;2024-03-23T07:24:44;1.73;;;1.63;;
53299;SDS011;39187;48.476;8.310;2024-03-23T07:27:10;1.73;;;1.63;;
53299;SDS011;39187;48.476;8.310;2024-03-23T07:29:36;1.77;;;1.67;;
53299;SDS011;39187;48.476;8.310;2024-03-23T07:32:01;2.20;;;2.10;;
53299;SDS011;39187;48.476;8.310;2024-03-23T07:34:27;1.90;;;1.80;;
53299;SDS011;39187;48.476;8.310;2024-03-23T07:36:53;2.20;;;2.10;;
53299;SDS011;39187;48.476;8.310;2024-03-23T07:39:19;2.73;;;2.63;;
53299;SDS011;39187;48.476;8.310;2024-03-23T07:41:44;7.13;;;3.27;;
53299;SDS011;39187;48.476;8.310;2024-03-23T07:44:10;2.67;;;2.57;;
53299;SDS011;39187;48.476;8.310;2024-03-23T07:46:36;3.87;;;3.57;;
53299;SDS011;39187;48.476;8.310;2024-03-23T07:49:02;10.63;;;4.97;;
53299;SDS011;39187;48.476;8.310;2024-03-23T07:51:29;3.90;;;3.80;;
53299;SDS011;39187;48.476;8.310;2024-03-23T07:53:55;4.30;;;3.90;;
53299;SDS011;39187;48.476;8.310;2024-03-23T07:56:21;7.43;;;4.00;;
53299;SDS011;39187;48.476;8.310;2024-03-23T07:58:48;4.03;;;3.70;;
53299;SDS011;39187;48.476;8.310;2024-03-23T08:01:15;4.10;;;3.80;;
53299;SDS011;39187;48.476;8.310;2024-03-23T08:03:42;5.20;;;4.70;;
53299;SDS011;39187;48.476;8.310;2024-03-23T08:06:14;5.20;;;4.13;;
53299;SDS011;39187;48.476;8.310;2024-03-23T08:08:49;8.20;;;5.03;;
53299;SDS011;39187;48.476;8.310;2024-03-23T08:11:24;10.57;;;5.40;;
53299;SDS011;39187;48.476;8.310;2024-03-23T08:13:51;5.67;;;5.20;;
53299;SDS011;39187;48.476;8.310;2024-03-23T08:16:17;9.73;;;5.80;;
53299;SDS011;39187;48.476;8.310;2024-03-23T08:18:42;7.43;;;6.90;;
53299;SDS011;39187;48.476;8.310;2024-03-23T08:21:08;6.00;;;5.43;;
53299;SDS011;39187;48.476;8.310;2024-03-23T08:23:34;14.10;;;6.43;;
53299;SDS011;39187;48.476;8.310;2024-03-23T08:26:09;6.70;;;6.10;;
53299;SDS011;39187;48.476;8.310;2024-03-23T08:28:37;6.13;;;5.70;;
53299;SDS011;39187;48.476;8.310;2024-03-23T08:31:04;6.73;;;6.03;;
53299;SDS011;39187;48.476;8.310;2024-03-23T08:33:34;7.40;;;5.90;;
53299;SDS011;39187;48.476;8.310;2024-03-23T08:36:01;5.77;;;5.43;;
53299;SDS011;39187;48.476;8.310;2024-03-23T08:38:28;6.53;;;5.90;;
53299;SDS011;39187;48.476;8.310;2024-03-23T08:41:02;6.33;;;5.77;;
53299;SDS011;39187;48.476;8.310;2024-03-23T08:43:29;6.17;;;5.77;;
53299;SDS011;39187;48.476;8.310;2024-03-23T08:48:35;10.20;;;5.70;;
53299;SDS011;39187;48.476;8.310;2024-03-23T08:51:10;9.43;;;7.10;;
53299;SDS011;39187;48.476;8.310;2024-03-23T08:53:37;10.63;;;7.13;;
53299;SDS011;39187;48.476;8.310;2024-03-23T08:56:04;14.53;;;7.90;;
53299;SDS011;39187;48.476;8.310;2024-03-23T08:58:39;7.90;;;7.10;;
53299;SDS011;39187;48.476;8.310;2024-03-23T09:01:10;14.87;;;8.50;;
53299;SDS011;39187;48.476;8.310;2024-03-23T09:03:40;13.00;;;7.50;;
53299;SDS011;39187;48.476;8.310;2024-03-23T09:06:10;25.20;;;9.47;;
53299;SDS011;39187;48.476;8.310;2024-03-23T09:08:37;13.60;;;7.63;;
53299;SDS011;39187;48.476;8.310;2024-03-23T09:11:08;12.97;;;7.10;;
53299;SDS011;39187;48.476;8.310;2024-03-23T09:13:39;9.70;;;6.80;;
53299;SDS011;39187;48.476;8.310;2024-03-23T09:16:05;10.73;;;7.83;;
53299;SDS011;39187;48.476;8.310;2024-03-23T09:18:32;15.27;;;8.20;;
53299;SDS011;39187;48.476;8.310;2024-03-23T09:21:04;19.10;;;7.83;;
53299;SDS011;39187;48.476;8.310;2024-03-23T09:23:36;19.47;;;8.10;;
53299;SDS011;39187;48.476;8.310;2024-03-23T09:26:04;14.90;;;8.47;;
53299;SDS011;39187;48.476;8.310;2024-03-23T09:28:32;21.70;;;8.23;;
53299;SDS011;39187;48.476;8.310;2024-03-23T09:31:05;20.30;;;9.17;;
53299;SDS011;39187;48.476;8.310;2024-03-23T09:33:32;18.90;;;8.83;;
53299;SDS011;39187;48.476;8.310;2024-03-23T09:36:04;17.63;;;7.83;;
53299;SDS011;39187;48.476;8.310;2024-03-23T09:38:30;8.43;;;7.60;;
53299;SDS011;39187;48.476;8.310;2024-03-23T09:40:56;11.43;;;6.60;;
53299;SDS011;39187;48.476;8.310;2024-03-23T09:43:23;14.67;;;8.70;;
53299;SDS011;39187;48.476;8.310;2024-03-23T09:45:48;15.50;;;7.67;;
53299;SDS011;39187;48.476;8.310;2024-03-23T09:48:14;13.47;;;8.27;;
53299;SDS011;39187;48.476;8.310;2024-03-23T09:50:42;8.63;;;7.53;;
53299;SDS011;39187;48.476;8.310;2024-03-23T09:53:09;13.00;;;7.60;;
53299;SDS011;39187;48.476;8.310;2024-03-23T09:55:36;8.10;;;6.57;;
53299;SDS011;39187;48.476;8.310;2024-03-23T09:58:03;7.40;;;6.70;;
53299;SDS011;39187;48.476;8.310;2024-03-23T10:00:30;11.37;;;6.70;;
53299;SDS011;39187;48.476;8.310;2024-03-23T10:02:56;23.27;;;7.00;;
53299;SDS011;39187;48.476;8.310;2024-03-23T10:05:29;11.00;;;6.73;;
53299;SDS011;39187;48.476;8.310;2024-03-23T10:10:43;11.93;;;6.57;;
53299;SDS011;39187;48.476;8.310;2024-03-23T10:13:09;6.87;;;6.23;;
53299;SDS011;39187;48.476;8.310;2024-03-23T10:15:35;5.87;;;5.37;;
53299;SDS011;39187;48.476;8.310;2024-03-23T10:18:17;11.93;;;8.33;;
53299;SDS011;39187;48.476;8.310;2024-03-23T10:20:47;4.50;;;4.17;;
53299;SDS011;39187;48.476;8.310;2024-03-23T10:23:18;2.20;;;2.10;;
53299;SDS011;39187;48.476;8.310;2024-03-23T10:25:44;1.80;;;1.70;;
53299;SDS011;39187;48.476;8.310;2024-03-23T10:28:10;2.70;;;2.50;;
53299;SDS011;39187;48.476;8.310;2024-03-23T10:30:36;1.50;;;1.40;;
53299;SDS011;39187;48.476;8.310;2024-03-23T10:33:09;1.93;;;1.83;;
53299;SDS011;39187;48.476;8.310;2024-03-23T10:35:36;2.33;;;2.10;;
53299;SDS011;39187;48.476;8.310;2024-03-23T10:38:03;6.73;;;1.57;;
53299;SDS011;39187;48.476;8.310;2024-03-23T10:40:30;2.40;;;2.23;;
53299;SDS011;39187;48.476;8.310;2024-03-23T10:42:57;3.33;;;2.43;;
53299;SDS011;39187;48.476;8.310;2024-03-23T10:45:23;2.27;;;2.07;;
53299;SDS011;39187;48.476;8.310;2024-03-23T10:47:49;2.70;;;2.47;;
53299;SDS011;39187;48.476;8.310;2024-03-23T10:50:15;4.60;;;3.80;;
53299;SDS011;39187;48.476;8.310;2024-03-23T10:52:41;5.20;;;3.50;;
53299;SDS011;39187;48.476;8.310;2024-03-23T10:55:13;6.40;;;3.47;;
53299;SDS011;39187;48.476;8.310;2024-03-23T10:57:45;10.90;;;4.50;;
53299;SDS011;39187;48.476;8.310;2024-03-23T11:00:16;9.20;;;3.47;;
53299;SDS011;39187;48.476;8.310;2024-03-23T11:02:42;5.13;;;3.63;;
53299;SDS011;39187;48.476;8.310;2024-03-23T11:05:29;6.60;;;3.53;;
53299;SDS011;39187;48.476;8.310;2024-03-23T11:07:54;3.10;;;2.20;;
53299;SDS011;39187;48.476;8.310;2024-03-23T11:12:54;2.43;;;2.30;;
53299;SDS011;39187;48.476;8.310;2024-03-23T11:15:19;3.23;;;1.90;;
53299;SDS011;39187;48.476;8.310;2024-03-23T11:20:37;2.27;;;2.07;;
53299;SDS011;39187;48.476;8.310;2024-03-23T11:23:03;2.73;;;2.60;;
53299;SDS011;39187;48.476;8.310;2024-03-23T11:25:29;4.27;;;2.97;;
53299;SDS011;39187;48.476;8.310;2024-03-23T11:27:55;7.43;;;3.47;;
53299;SDS011;39187;48.476;8.310;2024-03-23T11:30:26;4.40;;;2.63;;
53299;SDS011;39187;48.476;8.310;2024-03-23T11:32:55;3.30;;;2.60;;
53299;SDS011;39187;48.476;8.310;2024-03-23T11:38:01;4.03;;;2.47;;
53299;SDS011;39187;48.476;8.310;2024-03-23T11:40:29;2.27;;;2.17;;
53299;SDS011;39187;48.476;8.310;2024-03-23T11:42:57;4.47;;;2.77;;
53299;SDS011;39187;48.476;8.310;2024-03-23T11:45:27;3.83;;;2.27;;
53299;SDS011;39187;48.476;8.310;2024-03-23T11:48:04;2.40;;;2.30;;
53299;SDS011;39187;48.476;8.310;2024-03-23T11:50:34;2.97;;;2.30;;
53299;SDS011;39187;48.476;8.310;2024-03-23T11:53:20;4.17;;;2.73;;
53299;SDS011;39187;48.476;8.310;2024-03-23T11:55:48;2.73;;;2.53;;
53299;SDS011;39187;48.476;8.310;2024-03-23T11:58:15;5.10;;;4.00;;
53299;SDS011;39187;48.476;8.310;2024-03-23T12:00:42;4.80;;;3.00;;
53299;SDS011;39187;48.476;8.310;2024-03-23T12:03:14;3.73;;;3.47;;
53299;SDS011;39187;48.476;8.310;2024-03-23T12:05:41;6.73;;;2.97;;
53299;SDS011;39187;48.476;8.310;2024-03-23T12:08:19;2.97;;;2.77;;
53299;SDS011;39187;48.476;8.310;2024-03-23T12:10:47;2.03;;;1.93;;
53299;SDS011;39187;48.476;8.310;2024-03-23T12:13:17;2.80;;;2.00;;
53299;SDS011;39187;48.476;8.310;2024-03-23T12:15:50;2.33;;;2.10;;
53299;SDS011;39187;48.476;8.310;2024-03-23T12:18:16;2.17;;;2.07;;
53299;SDS011;39187;48.476;8.310;2024-03-23T12:20:42;3.20;;;2.37;;
53299;SDS011;39187;48.476;8.310;2024-03-23T12:23:08;2.60;;;2.40;;
53299;SDS011;39187;48.476;8.310;2024-03-23T12:25:36;2.67;;;2.43;;
53299;SDS011;39187;48.476;8.310;2024-03-23T12:28:03;3.33;;;3.03;;
53299;SDS011;39187;48.476;8.310;2024-03-23T12:30:31;4.33;;;3.30;;
53299;SDS011;39187;48.476;8.310;2024-03-23T12:33:06;5.63;;;2.83;;
53299;SDS011;39187;48.476;8.310;2024-03-23T12:35:31;4.27;;;2.97;;
53299;SDS011;39187;48.476;8.310;2024-03-23T12:37:57;3.60;;;3.33;;
53299;SDS011;39187;48.476;8.310;2024-03-23T12:40:23;7.13;;;4.10;;
53299;SDS011;39187;48.476;8.310;2024-03-23T12:42:48;4.97;;;4.27;;
53299;SDS011;39187;48.476;8.310;2024-03-23T12:45:14;5.67;;;3.20;;
53299;SDS011;39187;48.476;8.310;2024-03-23T12:47:39;8.20;;;3.63;;
53299;SDS011;39187;48.476;8.310;2024-03-23T12:50:05;4.13;;;3.73;;
53299;SDS011;39187;48.476;8.310;2024-03-23T12:52:32;7.20;;;3.50;;
53299;SDS011;39187;48.476;8.310;2024-03-23T12:54:58;4.57;;;3.50;;
53299;SDS011;39187;48.476;8.310;2024-03-23T12:57:24;3.93;;;3.30;;
53299;SDS011;39187;48.476;8.310;2024-03-23T12:59:51;3.63;;;3.17;;
53299;SDS011;39187;48.476;8.310;2024-03-23T13:02:21;3.33;;;2.90;;
53299;SDS011;39187;48.476;8.310;2024-03-23T13:04:49;3.50;;;2.73;;
53299;SDS011;39187;48.476;8.310;2024-03-23T13:07:15;6.00;;;2.97;;
53299;SDS011;39187;48.476;8.310;2024-03-23T13:09:44;2.63;;;2.20;;
53299;SDS011;39187;48.476;8.310;2024-03-23T13:12:10;4.83;;;2.60;;
53299;SDS011;39187;48.476;8.310;2024-03-23T13:14:39;7.77;;;3.50;;
53299;SDS011;39187;48.476;8.310;2024-03-23T13:17:05;4.30;;;2.97;;
53299;SDS011;39187;48.476;8.310;2024-03-23T13:19:32;4.83;;;2.50;;
53299;SDS011;39187;48.476;8.310;2024-03-23T13:21:58;4.50;;;3.03;;
53299;SDS011;39187;48.476;8.310;2024-03-23T13:24:25;3.50;;;3.13;;
53299;SDS011;39187;48.476;8.310;2024-03-23T13:26:51;3.97;;;3.50;;
53299;SDS011;39187;48.476;8.310;2024-03-23T13:29:18;7.17;;;3.00;;
53299;SDS011;39187;48.476;8.310;2024-03-23T13:31:47;3.87;;;3.20;;
53299;SDS011;39187;48.476;8.310;2024-03-23T13:34:14;4.50;;;3.50;;
53299;SDS011;39187;48.476;8.310;2024-03-23T13:36:46;22.03;;;5.20;;
53299;SDS011;39187;48.476;8.310;2024-03-23T13:39:13;12.03;;;3.70;;
53299;SDS011;39187;48.476;8.310;2024-03-23T13:41:42;6.37;;;3.60;;
53299;SDS011;39187;48.476;8.310;2024-03-23T13:44:13;9.60;;;5.40;;
53299;SDS011;39187;48.476;8.310;2024-03-23T13:46:42;5.83;;;3.27;;
53299;SDS011;39187;48.476;8.310;2024-03-23T13:49:27;3.80;;;3.47;;
53299;SDS011;39187;48.476;8.310;2024-03-23T13:51:54;10.67;;;3.90;;
53299;SDS011;39187;48.476;8.310;2024-03-23T13:54:22;8.33;;;4.00;;
53299;SDS011;39187;48.476;8.310;2024-03-23T13:56:49;3.37;;;3.10;;
53299;SDS011;39187;48.476;8.310;2024-03-23T13:59:18;9.73;;;3.17;;
53299;SDS011;39187;48.476;8.310;2024-03-23T14:01:44;2.77;;;2.57;;
53299;SDS011;39187;48.476;8.310;2024-03-23T14:04:10;4.13;;;3.80;;
53299;SDS011;39187;48.476;8.310;2024-03-23T14:06:36;15.30;;;2.87;;
53299;SDS011;39187;48.476;8.310;2024-03-23T14:09:02;12.50;;;3.03;;
53299;SDS011;39187;48.476;8.310;2024-03-23T14:11:29;3.70;;;2.80;;
53299;SDS011;39187;48.476;8.310;2024-03-23T14:13:54;2.73;;;2.10;;
53299;SDS011;39187;48.476;8.310;2024-03-23T14:16:20;1.83;;;1.27;;
53299;SDS011;39187;48.476;8.310;2024-03-23T14:18:48;2.50;;;1.97;;
53299;SDS011;39187;48.476;8.310;2024-03-23T14:21:14;1.93;;;1.83;;
53299;SDS011;39187;48.476;8.310;2024-03-23T14:23:39;4.07;;;2.40;;
53299;SDS011;39187;48.476;8.310;2024-03-23T14:26:06;2.40;;;2.00;;
53299;SDS011;39187;48.476;8.310;2024-03-23T14:28:31;2.40;;;2.23;;
53299;SDS011;39187;48.476;8.310;2024-03-23T14:30:57;5.47;;;1.93;;
53299;SDS011;39187;48.476;8.310;2024-03-23T14:33:22;4.40;;;2.13;;
53299;SDS011;39187;48.476;8.310;2024-03-23T14:35:55;2.47;;;1.57;;
53299;SDS011;39187;48.476;8.310;2024-03-23T14:38:22;1.67;;;1.57;;
53299;SDS011;39187;48.476;8.310;2024-03-23T14:40:48;6.67;;;2.70;;
53299;SDS011;39187;48.476;8.310;2024-03-23T14:43:14;3.13;;;1.80;;
53299;SDS011;39187;48.476;8.310;2024-03-23T14:46:16;8.70;;;1.83;;
53299;SDS011;39187;48.476;8.310;2024-03-23T14:48:38;3.03;;;1.43;;
53299;SDS011;39187;48.476;8.310;2024-03-23T14:51:04;5.20;;;2.03;;
53299;SDS011;39187;48.476;8.310;2024-03-23T14:53:33;3.73;;;1.13;;
53299;SDS011;39187;48.476;8.310;2024-03-23T14:56:00;3.43;;;1.50;;
53299;SDS011;39187;48.476;8.310;2024-03-23T14:58:27;1.80;;;1.70;;
53299;SDS011;39187;48.476;8.310;2024-03-23T15:00:53;4.33;;;1.60;;
53299;SDS011;39187;48.476;8.310;2024-03-23T15:03:25;1.80;;;1.40;;
53299;SDS011;39187;48.476;8.310;2024-03-23T15:05:52;2.03;;;1.00;;
53299;SDS011;39187;48.476;8.310;2024-03-23T15:08:18;3.00;;;1.47;;
53299;SDS011;39187;48.476;8.310;2024-03-23T15:10:43;5.10;;;1.30;;
53299;SDS011;39187;48.476;8.310;2024-03-23T15:13:09;1.60;;;1.20;;
53299;SDS011;39187;48.476;8.310;2024-03-23T15:15:38;4.00;;;1.07;;
53299;SDS011;39187;48.476;8.310;2024-03-23T15:18:05;5.43;;;1.00;;
53299;SDS011;39187;48.476;8.310;2024-03-23T15:20:31;3.23;;;1.10;;
53299;SDS011;39187;48.476;8.310;2024-03-23T15:23:00;2.20;;;1.10;;
53299;SDS011;39187;48.476;8.310;2024-03-23T15:25:27;4.60;;;0.90;;
53299;SDS011;39187;48.476;8.310;2024-03-23T15:27:52;1.77;;;0.80;;
53299;SDS011;39187;48.476;8.310;2024-03-23T15:30:20;1.83;;;1.10;;
53299;SDS011;39187;48.476;8.310;2024-03-23T15:32:45;1.63;;;1.37;;
53299;SDS011;39187;48.476;8.310;2024-03-23T15:35:11;1.47;;;1.20;;
53299;SDS011;39187;48.476;8.310;2024-03-23T15:37:37;1.03;;;0.90;;
53299;SDS011;39187;48.476;8.310;2024-03-23T15:40:04;1.50;;;0.97;;
53299;SDS011;39187;48.476;8.310;2024-03-23T15:42:31;2.40;;;0.87;;
53299;SDS011;39187;48.476;8.310;2024-03-23T15:44:56;1.30;;;1.00;;
53299;SDS011;39187;48.476;8.310;2024-03-23T15:47:22;1.30;;;1.00;;
53299;SDS011;39187;48.476;8.310;2024-03-23T15:49:49;1.30;;;0.97;;